sensor_id;sensor_type;location;lat;lon;timestamp;P1;durP1;ratioP1;P2;durP2;ratioP2
71351;SDS011;59159;51.652;4.864;2023-03-16T00:00:09;3.28;;;0.90;;
71351;SDS011;59159;51.652;4.864;2023-03-16T00:02:38;4.78;;;1.70;;
71351;SDS011;59159;51.652;4.864;2023-03-16T00:05:05;4.73;;;1.40;;
71351;SDS011;59159;51.652;4.864;2023-03-16T00:07:31;4.53;;;1.42;;
71351;SDS011;59159;51.652;4.864;2023-03-16T00:09:58;4.00;;;1.40;;
71351;SDS011;59159;51.652;4.864;2023-03-16T00:12:24;4.47;;;1.20;;
71351;SDS011;59159;51.652;4.864;2023-03-16T00:14:50;4.55;;;1.40;;
71351;SDS011;59159;51.652;4.864;2023-03-16T00:17:17;4.28;;;1.30;;
71351;SDS011;59159;51.652;4.864;2023-03-16T00:19:53;3.90;;;1.30;;
71351;SDS011;59159;51.652;4.864;2023-03-16T00:22:23;4.00;;;1.13;;
71351;SDS011;59159;51.652;4.864;2023-03-16T00:24:49;4.85;;;1.30;;
71351;SDS011;59159;51.652;4.864;2023-03-16T00:27:16;3.88;;;1.42;;
71351;SDS011;59159;51.652;4.864;2023-03-16T00:29:43;5.43;;;1.27;;
71351;SDS011;59159;51.652;4.864;2023-03-16T00:32:11;3.80;;;1.30;;
71351;SDS011;59159;51.652;4.864;2023-03-16T00:34:37;5.88;;;1.45;;
71351;SDS011;59159;51.652;4.864;2023-03-16T00:37:03;3.77;;;1.17;;
71351;SDS011;59159;51.652;4.864;2023-03-16T00:39:29;5.43;;;1.40;;
71351;SDS011;59159;51.652;4.864;2023-03-16T00:41:59;4.43;;;1.38;;
71351;SDS011;59159;51.652;4.864;2023-03-16T00:44:25;4.60;;;1.30;;
71351;SDS011;59159;51.652;4.864;2023-03-16T00:46:51;3.88;;;1.05;;
71351;SDS011;59159;51.652;4.864;2023-03-16T00:49:17;4.28;;;1.38;;
71351;SDS011;59159;51.652;4.864;2023-03-16T00:51:43;4.60;;;1.40;;
71351;SDS011;59159;51.652;4.864;2023-03-16T00:54:10;4.97;;;1.47;;
71351;SDS011;59159;51.652;4.864;2023-03-16T00:56:38;4.50;;;1.30;;
71351;SDS011;59159;51.652;4.864;2023-03-16T00:59:04;4.05;;;1.30;;
71351;SDS011;59159;51.652;4.864;2023-03-16T01:01:30;3.73;;;1.20;;
71351;SDS011;59159;51.652;4.864;2023-03-16T01:03:57;6.15;;;1.50;;
71351;SDS011;59159;51.652;4.864;2023-03-16T01:06:26;4.70;;;1.52;;
71351;SDS011;59159;51.652;4.864;2023-03-16T01:08:52;5.47;;;1.53;;
71351;SDS011;59159;51.652;4.864;2023-03-16T01:11:19;5.00;;;1.30;;
71351;SDS011;59159;51.652;4.864;2023-03-16T01:13:46;4.32;;;1.20;;
71351;SDS011;59159;51.652;4.864;2023-03-16T01:16:12;4.45;;;1.33;;
71351;SDS011;59159;51.652;4.864;2023-03-16T01:18:38;3.97;;;1.30;;
71351;SDS011;59159;51.652;4.864;2023-03-16T01:21:06;5.20;;;1.45;;
71351;SDS011;59159;51.652;4.864;2023-03-16T01:23:33;4.07;;;1.20;;
71351;SDS011;59159;51.652;4.864;2023-03-16T01:25:59;5.20;;;1.50;;
71351;SDS011;59159;51.652;4.864;2023-03-16T01:28:27;4.15;;;1.10;;
71351;SDS011;59159;51.652;4.864;2023-03-16T01:30:53;5.88;;;1.38;;
71351;SDS011;59159;51.652;4.864;2023-03-16T01:33:21;4.90;;;1.50;;
71351;SDS011;59159;51.652;4.864;2023-03-16T01:35:51;4.30;;;1.27;;
71351;SDS011;59159;51.652;4.864;2023-03-16T01:38:18;4.90;;;1.20;;
71351;SDS011;59159;51.652;4.864;2023-03-16T01:40:44;4.30;;;1.30;;
71351;SDS011;59159;51.652;4.864;2023-03-16T01:43:10;4.00;;;1.30;;
71351;SDS011;59159;51.652;4.864;2023-03-16T01:48:43;4.18;;;1.27;;
71351;SDS011;59159;51.652;4.864;2023-03-16T01:53:48;5.32;;;1.33;;
71351;SDS011;59159;51.652;4.864;2023-03-16T01:56:17;4.22;;;1.20;;
71351;SDS011;59159;51.652;4.864;2023-03-16T01:58:45;3.73;;;1.10;;
71351;SDS011;59159;51.652;4.864;2023-03-16T02:01:12;3.95;;;1.30;;
71351;SDS011;59159;51.652;4.864;2023-03-16T02:03:40;4.40;;;1.48;;
71351;SDS011;59159;51.652;4.864;2023-03-16T02:06:09;4.40;;;1.45;;
71351;SDS011;59159;51.652;4.864;2023-03-16T02:08:36;4.10;;;1.33;;
71351;SDS011;59159;51.652;4.864;2023-03-16T02:11:03;3.60;;;1.25;;
71351;SDS011;59159;51.652;4.864;2023-03-16T02:13:30;4.70;;;1.42;;
71351;SDS011;59159;51.652;4.864;2023-03-16T02:16:00;5.30;;;1.10;;
71351;SDS011;59159;51.652;4.864;2023-03-16T02:18:27;5.55;;;1.48;;
71351;SDS011;59159;51.652;4.864;2023-03-16T02:21:02;5.15;;;1.23;;
71351;SDS011;59159;51.652;4.864;2023-03-16T02:23:30;5.03;;;1.33;;
71351;SDS011;59159;51.652;4.864;2023-03-16T02:25:59;4.53;;;1.27;;
71351;SDS011;59159;51.652;4.864;2023-03-16T02:28:29;4.22;;;1.20;;
71351;SDS011;59159;51.652;4.864;2023-03-16T02:30:58;5.50;;;1.10;;
71351;SDS011;59159;51.652;4.864;2023-03-16T02:33:26;3.50;;;1.10;;
71351;SDS011;59159;51.652;4.864;2023-03-16T02:35:53;4.22;;;1.30;;
71351;SDS011;59159;51.652;4.864;2023-03-16T02:38:19;4.60;;;1.40;;
71351;SDS011;59159;51.652;4.864;2023-03-16T02:40:45;4.37;;;1.20;;
71351;SDS011;59159;51.652;4.864;2023-03-16T02:43:21;3.67;;;1.23;;
71351;SDS011;59159;51.652;4.864;2023-03-16T02:45:53;4.05;;;1.20;;
71351;SDS011;59159;51.652;4.864;2023-03-16T02:48:22;3.97;;;1.20;;
71351;SDS011;59159;51.652;4.864;2023-03-16T02:50:50;4.47;;;1.50;;
71351;SDS011;59159;51.652;4.864;2023-03-16T02:53:17;4.18;;;1.23;;
71351;SDS011;59159;51.652;4.864;2023-03-16T02:55:43;4.68;;;1.30;;
71351;SDS011;59159;51.652;4.864;2023-03-16T02:58:10;4.53;;;1.47;;
71351;SDS011;59159;51.652;4.864;2023-03-16T03:00:36;4.50;;;1.98;;
71351;SDS011;59159;51.652;4.864;2023-03-16T03:03:03;5.95;;;1.40;;
71351;SDS011;59159;51.652;4.864;2023-03-16T03:05:29;4.73;;;1.47;;
71351;SDS011;59159;51.652;4.864;2023-03-16T03:07:55;5.35;;;1.63;;
71351;SDS011;59159;51.652;4.864;2023-03-16T03:10:22;5.47;;;1.27;;
71351;SDS011;59159;51.652;4.864;2023-03-16T03:12:48;4.73;;;1.40;;
71351;SDS011;59159;51.652;4.864;2023-03-16T03:15:14;3.63;;;1.00;;
71351;SDS011;59159;51.652;4.864;2023-03-16T03:17:41;4.63;;;1.42;;
71351;SDS011;59159;51.652;4.864;2023-03-16T03:20:08;3.90;;;1.25;;
71351;SDS011;59159;51.652;4.864;2023-03-16T03:22:39;4.13;;;1.20;;
71351;SDS011;59159;51.652;4.864;2023-03-16T03:25:05;3.47;;;1.20;;
71351;SDS011;59159;51.652;4.864;2023-03-16T03:27:32;3.58;;;0.95;;
71351;SDS011;59159;51.652;4.864;2023-03-16T03:29:58;3.93;;;1.00;;
71351;SDS011;59159;51.652;4.864;2023-03-16T03:32:24;4.18;;;1.25;;
71351;SDS011;59159;51.652;4.864;2023-03-16T03:34:50;4.70;;;1.40;;
71351;SDS011;59159;51.652;4.864;2023-03-16T03:37:16;4.33;;;1.10;;
71351;SDS011;59159;51.652;4.864;2023-03-16T03:39:43;4.30;;;0.93;;
71351;SDS011;59159;51.652;4.864;2023-03-16T03:42:09;4.43;;;1.35;;
71351;SDS011;59159;51.652;4.864;2023-03-16T03:44:35;3.88;;;1.30;;
71351;SDS011;59159;51.652;4.864;2023-03-16T03:47:02;3.93;;;1.10;;
71351;SDS011;59159;51.652;4.864;2023-03-16T03:49:28;3.72;;;1.08;;
71351;SDS011;59159;51.652;4.864;2023-03-16T03:51:54;3.58;;;1.00;;
71351;SDS011;59159;51.652;4.864;2023-03-16T03:54:23;4.30;;;1.17;;
71351;SDS011;59159;51.652;4.864;2023-03-16T03:56:49;4.10;;;1.05;;
71351;SDS011;59159;51.652;4.864;2023-03-16T03:59:15;4.57;;;1.20;;
71351;SDS011;59159;51.652;4.864;2023-03-16T04:01:41;3.63;;;1.10;;
71351;SDS011;59159;51.652;4.864;2023-03-16T04:04:07;3.72;;;0.90;;
71351;SDS011;59159;51.652;4.864;2023-03-16T04:06:33;4.38;;;1.10;;
71351;SDS011;59159;51.652;4.864;2023-03-16T04:08:59;3.80;;;1.20;;
71351;SDS011;59159;51.652;4.864;2023-03-16T04:11:25;3.77;;;1.00;;
71351;SDS011;59159;51.652;4.864;2023-03-16T04:13:51;3.38;;;1.00;;
71351;SDS011;59159;51.652;4.864;2023-03-16T04:16:17;4.53;;;1.17;;
71351;SDS011;59159;51.652;4.864;2023-03-16T04:18:43;4.73;;;1.00;;
71351;SDS011;59159;51.652;4.864;2023-03-16T04:21:14;3.22;;;1.25;;
71351;SDS011;59159;51.652;4.864;2023-03-16T04:23:40;3.42;;;0.95;;
71351;SDS011;59159;51.652;4.864;2023-03-16T04:26:06;4.43;;;1.20;;
71351;SDS011;59159;51.652;4.864;2023-03-16T04:28:33;4.60;;;1.02;;
71351;SDS011;59159;51.652;4.864;2023-03-16T04:31:06;4.00;;;1.10;;
71351;SDS011;59159;51.652;4.864;2023-03-16T04:33:33;4.35;;;1.33;;
71351;SDS011;59159;51.652;4.864;2023-03-16T04:35:59;3.27;;;0.97;;
71351;SDS011;59159;51.652;4.864;2023-03-16T04:38:26;3.05;;;1.08;;
71351;SDS011;59159;51.652;4.864;2023-03-16T04:40:52;5.72;;;1.70;;
71351;SDS011;59159;51.652;4.864;2023-03-16T04:43:18;4.53;;;1.27;;
71351;SDS011;59159;51.652;4.864;2023-03-16T04:45:45;4.05;;;1.08;;
71351;SDS011;59159;51.652;4.864;2023-03-16T04:48:11;4.57;;;0.95;;
71351;SDS011;59159;51.652;4.864;2023-03-16T04:50:37;4.57;;;0.93;;
71351;SDS011;59159;51.652;4.864;2023-03-16T04:53:03;2.90;;;0.80;;
71351;SDS011;59159;51.652;4.864;2023-03-16T04:55:29;2.88;;;0.90;;
71351;SDS011;59159;51.652;4.864;2023-03-16T04:57:55;4.00;;;1.08;;
71351;SDS011;59159;51.652;4.864;2023-03-16T05:00:21;3.70;;;1.10;;
71351;SDS011;59159;51.652;4.864;2023-03-16T05:02:48;2.88;;;1.00;;
71351;SDS011;59159;51.652;4.864;2023-03-16T05:05:16;3.15;;;0.80;;
71351;SDS011;59159;51.652;4.864;2023-03-16T05:07:42;5.00;;;1.10;;
71351;SDS011;59159;51.652;4.864;2023-03-16T05:10:09;4.03;;;0.90;;
71351;SDS011;59159;51.652;4.864;2023-03-16T05:12:35;4.05;;;1.02;;
71351;SDS011;59159;51.652;4.864;2023-03-16T05:15:02;3.63;;;1.00;;
71351;SDS011;59159;51.652;4.864;2023-03-16T05:17:28;3.17;;;0.70;;
71351;SDS011;59159;51.652;4.864;2023-03-16T05:19:54;3.65;;;1.00;;
71351;SDS011;59159;51.652;4.864;2023-03-16T05:22:21;4.35;;;1.00;;
71351;SDS011;59159;51.652;4.864;2023-03-16T05:24:47;4.77;;;1.00;;
71351;SDS011;59159;51.652;4.864;2023-03-16T05:27:13;3.67;;;1.10;;
71351;SDS011;59159;51.652;4.864;2023-03-16T05:29:39;3.28;;;0.80;;
71351;SDS011;59159;51.652;4.864;2023-03-16T05:32:10;3.63;;;0.80;;
71351;SDS011;59159;51.652;4.864;2023-03-16T05:34:36;2.58;;;0.90;;
71351;SDS011;59159;51.652;4.864;2023-03-16T05:37:02;4.25;;;1.45;;
71351;SDS011;59159;51.652;4.864;2023-03-16T05:39:28;4.13;;;0.90;;
71351;SDS011;59159;51.652;4.864;2023-03-16T05:41:55;4.18;;;1.00;;
71351;SDS011;59159;51.652;4.864;2023-03-16T05:44:21;3.85;;;0.98;;
71351;SDS011;59159;51.652;4.864;2023-03-16T05:46:48;3.53;;;0.88;;
71351;SDS011;59159;51.652;4.864;2023-03-16T05:49:15;2.97;;;0.83;;
71351;SDS011;59159;51.652;4.864;2023-03-16T05:51:41;3.60;;;1.08;;
71351;SDS011;59159;51.652;4.864;2023-03-16T05:54:07;2.75;;;0.80;;
71351;SDS011;59159;51.652;4.864;2023-03-16T05:56:33;2.83;;;0.70;;
71351;SDS011;59159;51.652;4.864;2023-03-16T05:58:59;2.83;;;0.80;;
71351;SDS011;59159;51.652;4.864;2023-03-16T06:01:26;3.20;;;0.80;;
71351;SDS011;59159;51.652;4.864;2023-03-16T06:03:52;5.93;;;1.03;;
71351;SDS011;59159;51.652;4.864;2023-03-16T06:06:19;3.83;;;1.00;;
71351;SDS011;59159;51.652;4.864;2023-03-16T06:08:46;4.82;;;1.17;;
71351;SDS011;59159;51.652;4.864;2023-03-16T06:11:13;4.47;;;1.00;;
71351;SDS011;59159;51.652;4.864;2023-03-16T06:13:39;5.17;;;2.30;;
71351;SDS011;59159;51.652;4.864;2023-03-16T06:16:05;3.65;;;1.13;;
71351;SDS011;59159;51.652;4.864;2023-03-16T06:18:32;5.45;;;1.58;;
71351;SDS011;59159;51.652;4.864;2023-03-16T06:20:58;4.93;;;1.23;;
71351;SDS011;59159;51.652;4.864;2023-03-16T06:23:25;5.05;;;1.10;;
71351;SDS011;59159;51.652;4.864;2023-03-16T06:25:51;3.70;;;1.05;;
71351;SDS011;59159;51.652;4.864;2023-03-16T06:28:21;2.97;;;0.80;;
71351;SDS011;59159;51.652;4.864;2023-03-16T06:30:47;4.75;;;0.90;;
71351;SDS011;59159;51.652;4.864;2023-03-16T06:33:13;2.63;;;1.13;;
71351;SDS011;59159;51.652;4.864;2023-03-16T06:35:39;5.95;;;1.33;;
71351;SDS011;59159;51.652;4.864;2023-03-16T06:38:05;7.20;;;1.10;;
71351;SDS011;59159;51.652;4.864;2023-03-16T06:40:31;6.35;;;1.00;;
71351;SDS011;59159;51.652;4.864;2023-03-16T06:42:57;6.05;;;0.88;;
71351;SDS011;59159;51.652;4.864;2023-03-16T06:45:24;2.87;;;0.70;;
71351;SDS011;59159;51.652;4.864;2023-03-16T06:47:50;3.15;;;1.00;;
71351;SDS011;59159;51.652;4.864;2023-03-16T06:50:16;3.38;;;0.73;;
71351;SDS011;59159;51.652;4.864;2023-03-16T06:52:42;2.67;;;0.70;;
71351;SDS011;59159;51.652;4.864;2023-03-16T06:55:08;4.05;;;0.80;;
71351;SDS011;59159;51.652;4.864;2023-03-16T06:57:36;6.13;;;1.10;;
71351;SDS011;59159;51.652;4.864;2023-03-16T07:00:02;4.95;;;1.40;;
71351;SDS011;59159;51.652;4.864;2023-03-16T07:02:28;4.63;;;0.90;;
71351;SDS011;59159;51.652;4.864;2023-03-16T07:04:56;3.40;;;0.90;;
71351;SDS011;59159;51.652;4.864;2023-03-16T07:07:22;3.42;;;0.80;;
71351;SDS011;59159;51.652;4.864;2023-03-16T07:09:48;4.33;;;0.83;;
71351;SDS011;59159;51.652;4.864;2023-03-16T07:12:14;2.28;;;0.60;;
71351;SDS011;59159;51.652;4.864;2023-03-16T07:14:40;2.50;;;0.68;;
71351;SDS011;59159;51.652;4.864;2023-03-16T07:17:06;3.37;;;0.73;;
71351;SDS011;59159;51.652;4.864;2023-03-16T07:19:32;3.35;;;0.70;;
71351;SDS011;59159;51.652;4.864;2023-03-16T07:21:58;3.38;;;0.70;;
71351;SDS011;59159;51.652;4.864;2023-03-16T07:24:24;4.82;;;0.75;;
71351;SDS011;59159;51.652;4.864;2023-03-16T07:26:50;2.57;;;0.77;;
71351;SDS011;59159;51.652;4.864;2023-03-16T07:29:17;3.08;;;0.82;;
71351;SDS011;59159;51.652;4.864;2023-03-16T07:31:43;3.47;;;0.73;;
71351;SDS011;59159;51.652;4.864;2023-03-16T07:34:09;3.60;;;0.77;;
71351;SDS011;59159;51.652;4.864;2023-03-16T07:36:35;3.35;;;1.13;;
71351;SDS011;59159;51.652;4.864;2023-03-16T07:39:01;3.72;;;0.88;;
71351;SDS011;59159;51.652;4.864;2023-03-16T07:41:27;3.53;;;0.77;;
71351;SDS011;59159;51.652;4.864;2023-03-16T07:43:53;2.42;;;0.70;;
71351;SDS011;59159;51.652;4.864;2023-03-16T07:46:19;3.47;;;0.60;;
71351;SDS011;59159;51.652;4.864;2023-03-16T07:48:45;3.20;;;0.77;;
71351;SDS011;59159;51.652;4.864;2023-03-16T07:51:12;3.20;;;1.03;;
71351;SDS011;59159;51.652;4.864;2023-03-16T07:53:38;3.00;;;0.77;;
71351;SDS011;59159;51.652;4.864;2023-03-16T07:56:05;4.10;;;0.70;;
71351;SDS011;59159;51.652;4.864;2023-03-16T07:58:31;4.53;;;0.90;;
71351;SDS011;59159;51.652;4.864;2023-03-16T08:00:57;2.45;;;0.60;;
71351;SDS011;59159;51.652;4.864;2023-03-16T08:03:24;2.47;;;0.60;;
71351;SDS011;59159;51.652;4.864;2023-03-16T08:05:51;3.10;;;0.80;;
71351;SDS011;59159;51.652;4.864;2023-03-16T08:08:18;3.88;;;0.80;;
71351;SDS011;59159;51.652;4.864;2023-03-16T08:10:48;3.47;;;0.80;;
71351;SDS011;59159;51.652;4.864;2023-03-16T08:13:16;3.03;;;0.88;;
71351;SDS011;59159;51.652;4.864;2023-03-16T08:15:44;3.47;;;0.80;;
71351;SDS011;59159;51.652;4.864;2023-03-16T08:18:10;3.50;;;0.65;;
71351;SDS011;59159;51.652;4.864;2023-03-16T08:20:36;3.33;;;0.73;;
71351;SDS011;59159;51.652;4.864;2023-03-16T08:23:02;2.90;;;0.83;;
71351;SDS011;59159;51.652;4.864;2023-03-16T08:25:28;2.60;;;0.60;;
71351;SDS011;59159;51.652;4.864;2023-03-16T08:27:54;2.67;;;0.80;;
71351;SDS011;59159;51.652;4.864;2023-03-16T08:30:22;3.83;;;1.27;;
71351;SDS011;59159;51.652;4.864;2023-03-16T08:32:49;2.58;;;0.73;;
71351;SDS011;59159;51.652;4.864;2023-03-16T08:35:15;1.65;;;0.55;;
71351;SDS011;59159;51.652;4.864;2023-03-16T08:37:41;3.13;;;1.13;;
71351;SDS011;59159;51.652;4.864;2023-03-16T08:40:09;2.33;;;0.53;;
71351;SDS011;59159;51.652;4.864;2023-03-16T08:42:38;3.70;;;1.08;;
71351;SDS011;59159;51.652;4.864;2023-03-16T08:45:05;2.63;;;0.77;;
71351;SDS011;59159;51.652;4.864;2023-03-16T08:47:34;2.97;;;0.70;;
71351;SDS011;59159;51.652;4.864;2023-03-16T08:50:00;2.20;;;0.60;;
71351;SDS011;59159;51.652;4.864;2023-03-16T08:52:26;3.35;;;1.02;;
71351;SDS011;59159;51.652;4.864;2023-03-16T08:54:52;2.30;;;0.70;;
71351;SDS011;59159;51.652;4.864;2023-03-16T08:57:19;3.42;;;0.70;;
71351;SDS011;59159;51.652;4.864;2023-03-16T08:59:45;3.10;;;0.90;;
71351;SDS011;59159;51.652;4.864;2023-03-16T09:02:13;2.60;;;0.73;;
71351;SDS011;59159;51.652;4.864;2023-03-16T09:04:39;2.63;;;0.63;;
71351;SDS011;59159;51.652;4.864;2023-03-16T09:07:05;2.80;;;0.75;;
71351;SDS011;59159;51.652;4.864;2023-03-16T09:09:32;3.08;;;0.80;;
71351;SDS011;59159;51.652;4.864;2023-03-16T09:11:59;3.03;;;0.60;;
71351;SDS011;59159;51.652;4.864;2023-03-16T09:14:25;2.90;;;0.70;;
71351;SDS011;59159;51.652;4.864;2023-03-16T09:16:51;3.10;;;1.08;;
71351;SDS011;59159;51.652;4.864;2023-03-16T09:19:17;3.07;;;0.60;;
71351;SDS011;59159;51.652;4.864;2023-03-16T09:21:43;2.28;;;0.60;;
71351;SDS011;59159;51.652;4.864;2023-03-16T09:24:09;3.25;;;0.68;;
71351;SDS011;59159;51.652;4.864;2023-03-16T09:26:35;2.30;;;0.70;;
71351;SDS011;59159;51.652;4.864;2023-03-16T09:29:03;3.13;;;0.80;;
71351;SDS011;59159;51.652;4.864;2023-03-16T09:31:31;2.45;;;0.68;;
71351;SDS011;59159;51.652;4.864;2023-03-16T09:33:57;2.28;;;0.60;;
71351;SDS011;59159;51.652;4.864;2023-03-16T09:36:23;1.70;;;0.60;;
71351;SDS011;59159;51.652;4.864;2023-03-16T09:38:51;2.83;;;0.85;;
71351;SDS011;59159;51.652;4.864;2023-03-16T09:44:03;4.93;;;0.80;;
71351;SDS011;59159;51.652;4.864;2023-03-16T09:46:34;2.63;;;0.60;;
71351;SDS011;59159;51.652;4.864;2023-03-16T09:49:02;2.55;;;0.88;;
71351;SDS011;59159;51.652;4.864;2023-03-16T09:51:36;2.97;;;0.63;;
71351;SDS011;59159;51.652;4.864;2023-03-16T09:54:04;2.37;;;0.47;;
71351;SDS011;59159;51.652;4.864;2023-03-16T09:56:36;1.83;;;0.50;;
71351;SDS011;59159;51.652;4.864;2023-03-16T09:59:08;2.28;;;0.50;;
71351;SDS011;59159;51.652;4.864;2023-03-16T10:09:36;1.70;;;0.50;;
71351;SDS011;59159;51.652;4.864;2023-03-16T10:12:07;1.58;;;0.50;;
71351;SDS011;59159;51.652;4.864;2023-03-16T10:14:39;2.45;;;0.60;;
71351;SDS011;59159;51.652;4.864;2023-03-16T10:17:10;2.50;;;0.68;;
71351;SDS011;59159;51.652;4.864;2023-03-16T10:19:46;3.30;;;0.70;;
71351;SDS011;59159;51.652;4.864;2023-03-16T10:24:47;2.45;;;0.68;;
71351;SDS011;59159;51.652;4.864;2023-03-16T10:27:18;2.43;;;0.50;;
71351;SDS011;59159;51.652;4.864;2023-03-16T10:29:45;1.60;;;0.50;;
71351;SDS011;59159;51.652;4.864;2023-03-16T10:32:13;3.80;;;0.73;;
71351;SDS011;59159;51.652;4.864;2023-03-16T10:34:41;4.27;;;0.73;;
71351;SDS011;59159;51.652;4.864;2023-03-16T10:37:11;1.95;;;0.50;;
71351;SDS011;59159;51.652;4.864;2023-03-16T10:39:38;3.15;;;0.60;;
71351;SDS011;59159;51.652;4.864;2023-03-16T10:42:14;4.43;;;0.82;;
71351;SDS011;59159;51.652;4.864;2023-03-16T10:44:41;1.60;;;0.50;;
71351;SDS011;59159;51.652;4.864;2023-03-16T10:47:12;1.98;;;0.60;;
71351;SDS011;59159;51.652;4.864;2023-03-16T10:49:41;2.88;;;0.52;;
71351;SDS011;59159;51.652;4.864;2023-03-16T10:52:23;3.13;;;0.57;;
71351;SDS011;59159;51.652;4.864;2023-03-16T10:54:52;2.80;;;0.70;;
71351;SDS011;59159;51.652;4.864;2023-03-16T10:59:47;2.30;;;0.63;;
71351;SDS011;59159;51.652;4.864;2023-03-16T11:02:17;2.00;;;0.60;;
71351;SDS011;59159;51.652;4.864;2023-03-16T11:04:44;3.22;;;0.90;;
71351;SDS011;59159;51.652;4.864;2023-03-16T11:07:15;3.15;;;0.70;;
71351;SDS011;59159;51.652;4.864;2023-03-16T11:09:42;2.17;;;0.50;;
71351;SDS011;59159;51.652;4.864;2023-03-16T11:15:02;2.35;;;0.70;;
71351;SDS011;59159;51.652;4.864;2023-03-16T11:17:41;3.70;;;0.60;;
71351;SDS011;59159;51.652;4.864;2023-03-16T11:20:11;1.67;;;0.50;;
71351;SDS011;59159;51.652;4.864;2023-03-16T11:22:41;2.38;;;0.57;;
71351;SDS011;59159;51.652;4.864;2023-03-16T11:25:17;3.80;;;0.73;;
71351;SDS011;59159;51.652;4.864;2023-03-16T11:32:53;6.65;;;1.40;;
71351;SDS011;59159;51.652;4.864;2023-03-16T11:35:19;6.60;;;2.47;;
71351;SDS011;59159;51.652;4.864;2023-03-16T11:37:49;10.95;;;3.28;;
71351;SDS011;59159;51.652;4.864;2023-03-16T11:48:18;9.27;;;3.33;;
71351;SDS011;59159;51.652;4.864;2023-03-16T11:58:27;7.05;;;3.22;;
71351;SDS011;59159;51.652;4.864;2023-03-16T12:08:52;7.47;;;2.40;;
71351;SDS011;59159;51.652;4.864;2023-03-16T12:11:29;6.75;;;1.90;;
71351;SDS011;59159;51.652;4.864;2023-03-16T12:14:03;6.38;;;2.20;;
71351;SDS011;59159;51.652;4.864;2023-03-16T12:16:33;8.47;;;2.30;;
71351;SDS011;59159;51.652;4.864;2023-03-16T12:19:01;7.32;;;1.80;;
71351;SDS011;59159;51.652;4.864;2023-03-16T12:21:36;7.03;;;1.88;;
71351;SDS011;59159;51.652;4.864;2023-03-16T12:24:04;5.90;;;1.65;;
71351;SDS011;59159;51.652;4.864;2023-03-16T12:26:35;6.73;;;2.20;;
71351;SDS011;59159;51.652;4.864;2023-03-16T12:29:04;5.50;;;1.90;;
71351;SDS011;59159;51.652;4.864;2023-03-16T12:31:35;7.18;;;1.92;;
71351;SDS011;59159;51.652;4.864;2023-03-16T12:36:51;5.35;;;1.70;;
71351;SDS011;59159;51.652;4.864;2023-03-16T12:39:31;5.35;;;1.48;;
71351;SDS011;59159;51.652;4.864;2023-03-16T12:42:07;6.03;;;1.80;;
71351;SDS011;59159;51.652;4.864;2023-03-16T12:44:48;6.18;;;2.75;;
71351;SDS011;59159;51.652;4.864;2023-03-16T12:50:05;12.35;;;2.85;;
71351;SDS011;59159;51.652;4.864;2023-03-16T12:52:42;4.93;;;1.57;;
71351;SDS011;59159;51.652;4.864;2023-03-16T12:55:15;6.15;;;1.70;;
71351;SDS011;59159;51.652;4.864;2023-03-16T12:57:42;6.82;;;1.30;;
71351;SDS011;59159;51.652;4.864;2023-03-16T13:00:09;6.47;;;1.70;;
71351;SDS011;59159;51.652;4.864;2023-03-16T13:02:36;5.82;;;1.90;;
71351;SDS011;59159;51.652;4.864;2023-03-16T13:05:13;5.75;;;1.30;;
71351;SDS011;59159;51.652;4.864;2023-03-16T13:07:47;6.10;;;1.33;;
71351;SDS011;59159;51.652;4.864;2023-03-16T13:10:14;5.20;;;1.52;;
71351;SDS011;59159;51.652;4.864;2023-03-16T13:12:41;4.60;;;1.30;;
71351;SDS011;59159;51.652;4.864;2023-03-16T13:17:35;6.80;;;1.30;;
71351;SDS011;59159;51.652;4.864;2023-03-16T13:22:29;4.25;;;1.00;;
71351;SDS011;59159;51.652;4.864;2023-03-16T13:27:43;4.68;;;1.35;;
71351;SDS011;59159;51.652;4.864;2023-03-16T13:30:29;4.13;;;1.10;;
71351;SDS011;59159;51.652;4.864;2023-03-16T13:32:59;5.97;;;1.27;;
71351;SDS011;59159;51.652;4.864;2023-03-16T13:35:28;4.45;;;1.10;;
71351;SDS011;59159;51.652;4.864;2023-03-16T13:38:01;4.10;;;1.02;;
71351;SDS011;59159;51.652;4.864;2023-03-16T13:40:29;4.68;;;1.00;;
71351;SDS011;59159;51.652;4.864;2023-03-16T13:42:56;5.97;;;1.40;;
71351;SDS011;59159;51.652;4.864;2023-03-16T13:45:31;4.65;;;1.00;;
71351;SDS011;59159;51.652;4.864;2023-03-16T13:47:59;4.30;;;1.13;;
71351;SDS011;59159;51.652;4.864;2023-03-16T13:50:32;4.13;;;1.13;;
71351;SDS011;59159;51.652;4.864;2023-03-16T13:52:59;4.28;;;1.20;;
71351;SDS011;59159;51.652;4.864;2023-03-16T13:55:28;4.90;;;1.10;;
71351;SDS011;59159;51.652;4.864;2023-03-16T13:57:55;3.83;;;1.10;;
71351;SDS011;59159;51.652;4.864;2023-03-16T14:00:22;4.05;;;0.88;;
71351;SDS011;59159;51.652;4.864;2023-03-16T14:02:56;3.65;;;0.93;;
71351;SDS011;59159;51.652;4.864;2023-03-16T14:07:50;3.17;;;1.07;;
71351;SDS011;59159;51.652;4.864;2023-03-16T14:10:16;3.25;;;0.90;;
71351;SDS011;59159;51.652;4.864;2023-03-16T14:15:36;4.03;;;1.10;;
71351;SDS011;59159;51.652;4.864;2023-03-16T14:18:16;4.97;;;1.08;;
71351;SDS011;59159;51.652;4.864;2023-03-16T14:20:45;4.55;;;0.95;;
71351;SDS011;59159;51.652;4.864;2023-03-16T14:23:19;5.03;;;1.00;;
71351;SDS011;59159;51.652;4.864;2023-03-16T14:25:46;2.60;;;0.65;;
71351;SDS011;59159;51.652;4.864;2023-03-16T14:28:13;4.28;;;1.05;;
71351;SDS011;59159;51.652;4.864;2023-03-16T14:30:48;3.47;;;1.00;;
71351;SDS011;59159;51.652;4.864;2023-03-16T14:33:47;3.10;;;0.90;;
71351;SDS011;59159;51.652;4.864;2023-03-16T14:36:13;3.85;;;0.80;;
71351;SDS011;59159;51.652;4.864;2023-03-16T14:38:40;3.05;;;0.80;;
71351;SDS011;59159;51.652;4.864;2023-03-16T14:43:36;3.83;;;0.82;;
71351;SDS011;59159;51.652;4.864;2023-03-16T14:46:04;3.72;;;0.90;;
71351;SDS011;59159;51.652;4.864;2023-03-16T14:48:31;3.63;;;0.70;;
71351;SDS011;59159;51.652;4.864;2023-03-16T14:50:58;3.08;;;0.90;;
71351;SDS011;59159;51.652;4.864;2023-03-16T14:53:25;4.47;;;0.80;;
71351;SDS011;59159;51.652;4.864;2023-03-16T14:55:55;3.42;;;0.82;;
71351;SDS011;59159;51.652;4.864;2023-03-16T14:58:22;2.27;;;0.70;;
71351;SDS011;59159;51.652;4.864;2023-03-16T15:00:48;4.85;;;1.00;;
71351;SDS011;59159;51.652;4.864;2023-03-16T15:03:19;3.20;;;0.63;;
71351;SDS011;59159;51.652;4.864;2023-03-16T15:05:47;3.43;;;0.80;;
71351;SDS011;59159;51.652;4.864;2023-03-16T15:08:32;4.13;;;0.98;;
71351;SDS011;59159;51.652;4.864;2023-03-16T15:11:07;2.75;;;0.70;;
71351;SDS011;59159;51.652;4.864;2023-03-16T15:13:33;1.87;;;0.50;;
71351;SDS011;59159;51.652;4.864;2023-03-16T15:16:06;3.35;;;0.80;;
71351;SDS011;59159;51.652;4.864;2023-03-16T15:18:35;3.22;;;0.88;;
71351;SDS011;59159;51.652;4.864;2023-03-16T15:21:08;2.65;;;0.60;;
71351;SDS011;59159;51.652;4.864;2023-03-16T15:23:36;3.53;;;0.90;;
71351;SDS011;59159;51.652;4.864;2023-03-16T15:26:02;4.45;;;0.82;;
71351;SDS011;59159;51.652;4.864;2023-03-16T15:28:29;3.00;;;0.80;;
71351;SDS011;59159;51.652;4.864;2023-03-16T15:30:56;3.83;;;1.20;;
71351;SDS011;59159;51.652;4.864;2023-03-16T15:33:23;3.15;;;0.73;;
71351;SDS011;59159;51.652;4.864;2023-03-16T15:35:51;12.95;;;1.20;;
71351;SDS011;59159;51.652;4.864;2023-03-16T15:38:19;4.43;;;1.00;;
71351;SDS011;59159;51.652;4.864;2023-03-16T15:40:46;3.40;;;0.80;;
71351;SDS011;59159;51.652;4.864;2023-03-16T15:43:15;4.47;;;0.80;;
71351;SDS011;59159;51.652;4.864;2023-03-16T15:45:42;4.65;;;0.88;;
71351;SDS011;59159;51.652;4.864;2023-03-16T15:48:08;3.77;;;1.10;;
71351;SDS011;59159;51.652;4.864;2023-03-16T15:50:35;5.60;;;1.05;;
71351;SDS011;59159;51.652;4.864;2023-03-16T15:53:05;3.60;;;0.93;;
71351;SDS011;59159;51.652;4.864;2023-03-16T15:55:34;5.30;;;1.30;;
71351;SDS011;59159;51.652;4.864;2023-03-16T15:58:02;3.75;;;1.05;;
71351;SDS011;59159;51.652;4.864;2023-03-16T16:00:32;3.22;;;0.80;;
71351;SDS011;59159;51.652;4.864;2023-03-16T16:03:00;3.70;;;0.90;;
71351;SDS011;59159;51.652;4.864;2023-03-16T16:05:26;5.95;;;1.00;;